aviador You're here:

LICG Decoded Metar

PANTELLERIA in ITALY
Report Time2018-07-22 14:55:00
UTC Time2018-07-22 16:02:54
Flight Rules Old
Wind050° at 04 kt
W.Decomp.*RWY 03: 3.8 kt HW 1.2 kt RCW
RWY 08: 3.4 kt HW 2.1 kt LCW
W.Rank050° ranks 22
Current wind is below 050° avg. (5.9)
Visibility9999 m
Phenomena:N/A
Clouds:Few 070 Hf
Scattered 100 Hf
Expected CloudBase > 400 ft AGL from Temp-Dew spread
CeilingNone
Temp27°C (ISA +13)
Dew Point26°C (94% RH)
Heat Index31.2°C
QNH1013 hPa
Density Alt2,598 ft
Elevation627 ft
Report Wrong Elevation
Raw Report
LICG 221455Z 05004KT CAVOK 27/26 Q1013 RMK BKN FEW070 SCT100 VIS
MIN 9999 WIND THR08 35005KT WIND THR21 02004KT BLU=

Extra information for LICG:More info

Metar Taf Metar & Taf Last 4 Metars F.Rules Stats Wind Profile Meteogram Temp Stats Airport Information Weather charts Add Link Nearby VenuesMetar ALERT Operation Metar Decoded Social comments